createdAt,value
2018-05-15T00:03:20.925Z,2.57
2018-05-15T00:08:25.059Z,2.17
2018-05-15T00:13:26.508Z,2.70
2018-05-15T00:18:27.780Z,1.90
2018-05-15T00:23:29.813Z,1.90
2018-05-15T00:28:31.109Z,1.93
2018-05-15T00:33:33.220Z,2.20
2018-05-15T00:38:34.474Z,2.30
2018-05-15T00:43:38.596Z,2.10
2018-05-15T00:48:42.010Z,2.10
2018-05-15T00:53:43.255Z,2.13
2018-05-15T00:58:44.479Z,2.33
2018-05-15T01:03:49.424Z,2.30
2018-05-15T01:08:50.670Z,2.70
2018-05-15T01:13:52.871Z,2.73
2018-05-15T01:18:54.253Z,2.60
2018-05-15T01:23:55.547Z,2.67
2018-05-15T01:28:57.857Z,2.87
2018-05-15T01:33:59.155Z,2.80
2018-05-15T01:39:00.560Z,3.07
2018-05-15T01:44:01.853Z,2.37
2018-05-15T01:49:03.204Z,2.87
2018-05-15T01:54:04.595Z,2.60
2018-05-15T01:59:05.898Z,5.10
2018-05-15T02:04:08.277Z,2.97
2018-05-15T02:09:10.348Z,3.00
2018-05-15T02:14:11.588Z,3.10
2018-05-15T02:19:13.859Z,2.90
2018-05-15T02:24:15.091Z,3.10
2018-05-15T02:29:17.485Z,2.97
2018-05-15T02:34:18.719Z,2.90
2018-05-15T02:39:20.090Z,2.53
2018-05-15T02:44:21.412Z,3.03
2018-05-15T02:49:24.709Z,2.63
2018-05-15T02:54:25.993Z,3.57
2018-05-15T02:59:28.077Z,2.97
2018-05-15T03:04:30.128Z,3.17
2018-05-15T03:09:31.484Z,3.07
2018-05-15T03:14:33.770Z,3.13
2018-05-15T03:19:35.045Z,3.00
2018-05-15T03:24:36.420Z,3.53
2018-05-15T03:29:37.707Z,3.00
2018-05-15T03:34:39.967Z,2.93
2018-05-15T03:39:41.332Z,3.43
2018-05-15T03:44:42.650Z,3.27
2018-05-15T03:49:43.904Z,3.27
2018-05-15T03:54:45.214Z,3.13
2018-05-15T03:59:46.587Z,3.63
2018-05-15T04:05:00.043Z,3.40
2018-05-15T04:10:02.158Z,3.30
2018-05-15T04:15:08.750Z,3.37
2018-05-15T04:20:10.023Z,3.40
2018-05-15T04:25:14.424Z,3.40
2018-05-15T04:30:16.707Z,3.57
2018-05-15T04:35:18.855Z,3.30
2018-05-15T04:40:25.651Z,3.33
2018-05-15T04:45:31.679Z,3.47
2018-05-15T04:50:32.948Z,2.90
2018-05-15T04:55:34.202Z,2.30
2018-05-15T05:00:35.455Z,2.47
2018-05-15T05:05:36.705Z,2.63
2018-05-15T05:10:37.981Z,2.60
2018-05-15T05:15:39.226Z,2.87
2018-05-15T05:20:40.493Z,2.70
2018-05-15T05:25:41.758Z,2.80
2018-05-15T05:30:43.860Z,2.70
2018-05-15T05:35:45.302Z,2.37
2018-05-15T05:40:46.703Z,2.50
2018-05-15T05:45:48.027Z,2.90
2018-05-15T05:50:49.283Z,2.77
2018-05-15T05:55:52.462Z,2.50
2018-05-15T06:00:53.821Z,2.87
2018-05-15T06:05:55.127Z,2.40
2018-05-15T06:10:58.167Z,2.50
2018-05-15T06:16:00.222Z,3.00
2018-05-15T06:21:01.590Z,3.07
2018-05-15T06:26:02.836Z,3.40
2018-05-15T06:31:04.138Z,2.97
2018-05-15T06:36:06.207Z,3.03
2018-05-15T06:41:07.641Z,3.30
2018-05-15T06:46:08.893Z,2.80
2018-05-15T06:51:10.174Z,3.30
2018-05-15T06:56:11.615Z,3.33
2018-05-15T07:01:13.705Z,2.70
2018-05-15T07:06:15.008Z,3.17
2018-05-15T07:11:17.102Z,2.90
2018-05-15T07:16:19.167Z,3.20
2018-05-15T07:21:20.531Z,3.00
2018-05-15T07:26:22.543Z,3.60
2018-05-15T07:31:23.815Z,3.60
2018-05-15T07:36:25.052Z,3.43
2018-05-15T07:41:26.371Z,3.33
2018-05-15T07:46:27.776Z,3.50
2018-05-15T07:51:29.113Z,3.50
2018-05-15T07:56:30.485Z,3.27
2018-05-15T08:01:32.545Z,3.80
2018-05-15T08:06:33.946Z,3.13
2018-05-15T08:11:35.230Z,4.60
2018-05-15T08:16:36.656Z,3.73
2018-05-15T08:21:38.694Z,4.20
2018-05-15T08:26:39.904Z,3.47
2018-05-15T08:31:42.023Z,3.77
2018-05-15T08:36:43.313Z,3.67
2018-05-15T08:41:46.081Z,4.03
2018-05-15T08:46:47.350Z,3.30
2018-05-15T08:51:48.613Z,3.30
2018-05-15T08:56:49.913Z,3.50
2018-05-15T09:01:51.997Z,3.57
2018-05-15T09:06:54.020Z,3.00
2018-05-15T09:11:55.310Z,3.13
2018-05-15T09:16:56.705Z,2.50
2018-05-15T09:21:58.788Z,3.00
2018-05-15T09:27:00.732Z,2.50
2018-05-15T09:32:02.142Z,2.33
2018-05-15T09:37:03.425Z,2.90
2018-05-15T09:42:04.751Z,2.70
2018-05-15T09:47:06.890Z,2.80
2018-05-15T09:52:08.128Z,2.57
2018-05-15T09:57:10.623Z,2.47
2018-05-15T10:02:11.925Z,2.40
2018-05-15T10:07:14.243Z,2.67
2018-05-15T10:12:15.572Z,2.00
2018-05-15T10:17:16.907Z,2.50
2018-05-15T10:22:18.282Z,2.60
2018-05-15T10:27:19.603Z,2.97
2018-05-15T10:32:20.949Z,3.10
2018-05-15T10:37:22.265Z,2.67
2018-05-15T10:42:23.519Z,2.77
2018-05-15T10:47:24.803Z,3.10
2018-05-15T10:52:26.125Z,2.60
2018-05-15T10:57:27.380Z,3.10
2018-05-15T11:02:28.730Z,2.90
2018-05-15T11:07:30.090Z,3.23
2018-05-15T11:12:31.396Z,3.60
2018-05-15T11:17:32.824Z,3.17
2018-05-15T11:27:56.541Z,4.27
2018-05-15T11:32:57.892Z,3.70
2018-05-15T11:37:59.977Z,3.40
2018-05-15T11:43:01.322Z,3.87
2018-05-15T11:48:03.916Z,4.00
2018-05-15T11:53:05.674Z,4.20
2018-05-15T11:58:07.001Z,3.50
2018-05-15T12:03:08.415Z,3.60
2018-05-15T12:08:10.555Z,3.60
2018-05-15T12:13:11.836Z,3.37
2018-05-15T12:18:13.246Z,3.30
2018-05-15T12:23:14.675Z,3.50
2018-05-15T12:28:16.761Z,3.43
2018-05-15T12:33:18.863Z,3.20
2018-05-15T12:38:20.875Z,3.50
2018-05-15T12:43:22.168Z,3.17
2018-05-15T12:48:23.576Z,3.67
2018-05-15T12:53:24.886Z,3.50
2018-05-15T12:58:26.248Z,3.37
2018-05-15T13:03:27.701Z,3.43
2018-05-15T13:08:28.931Z,3.03
2018-05-15T13:13:30.263Z,3.20
2018-05-15T13:18:32.366Z,3.30
2018-05-15T13:23:34.417Z,2.67
2018-05-15T13:28:35.794Z,3.20
2018-05-15T13:33:37.828Z,2.70
2018-05-15T13:38:39.113Z,2.80
2018-05-15T13:43:40.483Z,3.13
2018-05-15T13:48:41.864Z,3.93
2018-05-15T13:53:43.160Z,3.33
2018-05-15T13:58:44.487Z,3.97
2018-05-15T14:03:46.580Z,3.47
2018-05-15T14:08:47.893Z,3.83
2018-05-15T14:13:49.180Z,3.80
2018-05-15T14:18:51.268Z,4.10
2018-05-15T14:23:53.374Z,3.80
2018-05-15T14:28:54.696Z,3.47
2018-05-15T14:33:56.793Z,3.60
2018-05-15T14:38:58.118Z,3.70
2018-05-15T14:44:00.441Z,3.80
2018-05-15T14:49:02.466Z,3.30
2018-05-15T14:54:05.661Z,3.37
2018-05-15T14:59:06.956Z,2.97
2018-05-15T15:04:08.254Z,3.40
2018-05-15T15:09:09.630Z,3.03
2018-05-15T15:14:10.985Z,3.20
2018-05-15T15:19:12.325Z,3.20
2018-05-15T15:24:13.592Z,3.87
2018-05-15T15:29:15.809Z,2.97
2018-05-15T15:34:17.224Z,2.90
2018-05-15T15:39:18.667Z,3.57
2018-05-15T15:44:20.052Z,3.60
2018-05-15T15:49:21.551Z,3.57
2018-05-15T15:54:22.940Z,3.20
2018-05-15T15:59:24.311Z,3.43
2018-05-15T16:04:26.399Z,3.73
2018-05-15T16:09:27.760Z,3.53
2018-05-15T16:14:29.846Z,3.67
2018-05-15T16:19:31.252Z,4.40
2018-05-15T16:24:33.320Z,3.80
2018-05-15T16:29:34.648Z,3.03
2018-05-15T16:34:35.963Z,4.10
2018-05-15T16:39:38.125Z,4.07
2018-05-15T16:44:40.198Z,3.83
2018-05-15T16:49:41.584Z,4.27
2018-05-15T16:54:43.672Z,3.80
2018-05-15T16:59:45.759Z,3.40
2018-05-15T17:04:47.071Z,3.40
2018-05-15T17:09:48.331Z,3.70
2018-05-15T17:14:49.636Z,3.70
2018-05-15T17:19:51.737Z,3.10
2018-05-15T17:24:53.120Z,4.53
2018-05-15T17:29:54.446Z,3.60
2018-05-15T17:34:56.535Z,3.67
2018-05-15T17:39:57.891Z,3.17
2018-05-15T17:44:59.944Z,3.20
2018-05-15T17:50:01.267Z,3.03
2018-05-15T17:55:02.590Z,2.93
2018-05-15T18:00:04.715Z,2.93
2018-05-15T18:05:06.015Z,3.03
2018-05-15T18:10:08.101Z,3.10
2018-05-15T18:15:10.286Z,3.10
2018-05-15T18:20:11.515Z,2.77
2018-05-15T18:25:12.966Z,2.93
2018-05-15T18:30:14.303Z,3.30
2018-05-15T18:35:15.575Z,2.90
2018-05-15T18:40:17.008Z,2.77
2018-05-15T18:45:18.409Z,1.53
2018-05-15T18:50:19.672Z,1.43
2018-05-15T18:55:20.956Z,1.17
2018-05-15T19:00:22.225Z,1.50
2018-05-15T19:05:23.526Z,1.30
2018-05-15T19:10:25.524Z,1.20
2018-05-15T19:15:26.829Z,1.07
2018-05-15T19:20:28.159Z,1.40
2018-05-15T19:25:29.462Z,1.00
2018-05-15T19:30:30.830Z,1.40
2018-05-15T19:35:39.003Z,1.50
2018-05-15T19:40:41.392Z,1.57
2018-05-15T19:45:42.648Z,1.83
2018-05-15T19:50:43.950Z,1.80
2018-05-15T19:55:45.331Z,1.50
2018-05-15T20:00:46.689Z,1.57
2018-05-15T20:05:48.010Z,2.43
2018-05-15T20:10:49.284Z,1.93
2018-05-15T20:15:51.631Z,2.13
2018-05-15T20:20:53.681Z,2.10
2018-05-15T20:25:55.693Z,2.00
2018-05-15T20:30:57.016Z,2.10
2018-05-15T20:35:58.391Z,2.07
2018-05-15T20:40:59.721Z,2.20
2018-05-15T20:46:01.034Z,2.17
2018-05-15T20:51:02.355Z,2.60
2018-05-15T20:56:03.751Z,2.37
2018-05-15T21:01:05.937Z,3.20
2018-05-15T21:06:08.034Z,2.30
2018-05-15T21:11:09.389Z,1.70
2018-05-15T21:16:10.875Z,1.87
2018-05-15T21:21:12.175Z,2.00
2018-05-15T21:26:14.256Z,1.97
2018-05-15T21:31:15.640Z,2.20
2018-05-15T21:36:16.968Z,2.10
2018-05-15T21:41:18.338Z,2.90
2018-05-15T21:46:19.630Z,2.27
2018-05-15T21:51:21.796Z,2.37
2018-05-15T21:56:23.171Z,1.93
2018-05-15T22:01:25.304Z,3.20
2018-05-15T22:06:27.320Z,2.50
2018-05-15T22:11:30.043Z,2.60
2018-05-15T22:16:44.278Z,2.20
2018-05-15T22:21:58.834Z,2.67
2018-05-15T22:27:00.240Z,2.40
2018-05-15T22:32:02.709Z,2.70
2018-05-15T22:37:04.941Z,2.53
2018-05-15T22:42:07.101Z,2.17
2018-05-15T22:47:09.261Z,1.80
2018-05-15T22:52:10.563Z,1.90
2018-05-15T22:57:11.812Z,1.97
2018-05-15T23:02:13.472Z,1.87
2018-05-15T23:07:15.542Z,2.40
2018-05-15T23:12:17.589Z,2.00
2018-05-15T23:17:18.817Z,2.17
2018-05-15T23:22:32.460Z,2.03
2018-05-15T23:27:33.797Z,2.40
2018-05-15T23:32:35.877Z,2.13
2018-05-15T23:37:38.000Z,2.30
2018-05-15T23:42:39.291Z,2.80
2018-05-15T23:47:40.659Z,2.80
2018-05-15T23:52:41.916Z,2.53
2018-05-15T23:57:43.266Z,2.77
